Stations météo

réclame
Mon MeteoGroup
Leck, Allemagne (10022): Température de l'air & dewpoint: 09.09.2019 12:00:00 - 15.09.2019 12:00:00 (CEST)Leck, Allemagne (10022): Température de l'air 5cm & Température de l'air -5cm: 09.09.2019 12:00:00 - 15.09.2019 12:00:00 (CEST)Leck, Allemagne (10022): Température de l'air -20cm & Température de l'air -100cm: 09.09.2019 12:00:00 - 15.09.2019 12:00:00 (CEST)Leck, Allemagne (10022): Vitesse du vent & gusts: 09.09.2019 12:00:00 - 15.09.2019 12:00:00 (CEST)Leck, Allemagne (10022): Direction du vent: 09.09.2019 12:00:00 - 15.09.2019 12:00:00 (CEST)Leck, Allemagne (10022): reduced air pressure: 09.09.2019 12:00:00 - 15.09.2019 12:00:00 (CEST)Leck, Allemagne (10022): Ensoleillement: 09.09.2019 12:00:00 - 15.09.2019 12:00:00 (CEST)Leck, Allemagne (10022): Quantités de précipitations: 09.09.2019 12:00:00 - 15.09.2019 12:00:00 (CEST)
Date & Time tt [°C] td [°C] tt 5cm [°C] tt -5cm [°C] tt -20cm [°C] tt -100cm [°C] ff [km/h] ff [knt] fx [km/h] fx [knt] dd ppp [hPa] sd [min] rr [mm]
15.09.2019 12:00:00 16,2 14,6 16,7 16,3 14,1 15,0 24 13 49 26 W 1016,0 0 0,0
15.09.2019 11:00:00 16,0 14,9 15,6 15,6 13,9 15,0 30 16 57 31 W 1016,0 0 0,0
15.09.2019 10:00:00 16,0 14,4 15,7 14,7 13,7 15,0 25 13 45 24 W 1016,0 0 0,0
15.09.2019 09:00:00 17,0 13,2 16,3 14,1 13,6 15,0 24 13 44 24 W 1015,9 0 0,0
15.09.2019 08:00:00 16,5 13,0 15,8 13,2 13,6 15,0 24 13 39 21 WSW 1016,3 0 0,0
15.09.2019 07:00:00 15,7 12,7 14,2 12,5 13,7 15,0 23 12 39 21 WSW 1016,6 0 0,0
15.09.2019 06:00:00 15,0 11,9 13,5 12,3 13,7 15,0 21 11 37 20 SW 1017,6 0 0,0
15.09.2019 05:00:00 15,0 11,6 13,3 12,1 13,8 15,0 23 12 37 20 SW 1018,7 0 0,0
15.09.2019 04:00:00 14,9 11,1 13,3 12,1 13,9 15,0 25 13 38 21 SW 1019,9 0 0,0
15.09.2019 03:00:00 14,7 11,3 13,0 12,2 14,0 15,0 20 11 36 19 SW 1020,9 0 0,0
15.09.2019 02:00:00 14,5 11,5 12,8 12,1 14,1 15,0 19 11 32 18 SW 1022,3 0 0,0
15.09.2019 01:00:00 14,4 11,4 12,9 12,1 14,3 15,0 20 11 34 19 SW 1023,2 0 0,0
15.09.2019 00:00:00 13,8 11,4 12,1 11,9 14,5 15,0 16 8 24 13 SW 1024,6 0 0,0
14.09.2019 23:00:00 13,2 10,5 11,6 12,0 14,7 15,0 15 8 26 14 SSW 1025,4 0 0,0
14.09.2019 22:00:00 13,4 10,0 11,6 12,4 15,0 15,0 14 8 24 13 SW 1026,5 0 0,0
14.09.2019 21:00:00 12,9 10,2 10,9 13,0 15,3 15,0 11 6 18 10 SW 1027,7 0 0,0
14.09.2019 20:00:00 13,2 9,8 10,9 14,1 15,4 15,1 9 5 21 11 SW 1028,2 0 0,0
14.09.2019 19:00:00 14,7 9,0 13,8 15,5 15,5 15,1 12 6 27 14 SW 1028,8 32 0,0
14.09.2019 18:00:00 15,7 9,3 17,0 17,3 15,4 15,1 16 9 32 17 SW 1029,5 45 0,0
14.09.2019 17:00:00 16,0 8,4 17,4 18,6 15,1 15,1 16 8 35 19 WSW 1030,7 43 0,0
14.09.2019 16:00:00 16,9 8,6 19,8 19,8 14,6 15,1 18 10 31 17 SW 1031,0 48 0,0
14.09.2019 15:00:00 17,0 7,8 20,3 20,1 14,1 15,1 22 12 34 19 SW 1032,1 56 0,0
14.09.2019 14:00:00 16,7 8,2 20,8 18,0 13,7 15,1 16 8 26 14 W 1032,8 26 0,0
14.09.2019 13:00:00 16,0 8,0 17,8 17,6 13,2 15,1 17 9 27 14 WSW 1033,3 38 0,0
14.09.2019 12:00:00 15,7 8,3 17,9 16,7 12,7 15,1 13 7 23 12 W 1033,7 48 0,0
14.09.2019 11:00:00 15,0 8,4 15,8 14,7 12,3 15,1 12 7 18 10 WSW 1033,6 29 0,0
14.09.2019 10:00:00 14,5 9,6 17,8 13,1 12,1 15,1 7 4 11 6 S 1034,1 60 0,0
14.09.2019 09:00:00 11,7 9,3 11,7 9,5 12,1 15,1 5 3 6 4 S 1034,0 60 0,0
14.09.2019 08:00:00 9,1 7,3 6,7 7,2 12,4 15,1 8 4 11 6 WSW 1033,6 12 0,0
14.09.2019 07:00:00 7,0 6,4 2,9 7,0 12,6 15,1 6 4 9 5 SW 1033,6 0 0,0
14.09.2019 06:00:00 6,5 6,0 3,4 7,2 12,9 15,1 4 2 5 3 SW 1033,7 0 0,0
14.09.2019 05:00:00 6,1 5,6 3,2 7,4 13,2 15,1 2 1 8 4 SSW 1033,8 0 0,0
14.09.2019 04:00:00 6,4 5,8 2,7 7,9 13,5 15,1 4 2 7 4 SW 1034,1 0 0,0
14.09.2019 03:00:00 7,5 5,9 3,9 8,5 13,9 15,1 0 0 9 5 N 1034,1 0 0,0
14.09.2019 02:00:00 9,0 7,2 4,5 9,0 14,2 15,1 8 4 10 5 W 1034,1 0 0,0
14.09.2019 01:00:00 9,7 7,4 6,7 9,6 14,5 15,1 9 5 11 6 W 1034,1 0 0,0
14.09.2019 00:00:00 10,1 7,7 6,6 10,0 14,9 15,1 6 4 11 6 W 1034,3 0 0,0
13.09.2019 23:00:00 10,2 8,1 5,4 10,5 15,3 15,1 6 4 8 5 W 1033,9 0 0,0
13.09.2019 22:00:00 10,8 8,2 6,9 11,4 15,6 15,1 7 4 13 7 W 1033,3 0 0,0
13.09.2019 21:00:00 11,4 8,3 8,1 12,5 16,0 15,1 9 5 18 10 WNW 1033,1 0 0,0
13.09.2019 20:00:00 13,2 8,6 11,3 14,0 16,2 15,1 13 7 29 16 NW 1032,8 5 0,0
13.09.2019 19:00:00 15,0 9,6 14,5 15,5 16,4 15,1 18 10 33 18 WNW 1032,4 40 0,0
13.09.2019 18:00:00 15,4 9,4 16,7 16,5 16,4 15,1 18 10 36 19 NW 1031,8 36 0,0
13.09.2019 17:00:00 16,4 7,0 18,5 18,0 16,3 15,1 24 13 44 24 NW 1032,0 59 0,0
13.09.2019 16:00:00 16,5 8,4 18,4 18,8 16,2 15,1 29 16 44 24 WNW 1031,6 46 0,0
13.09.2019 15:00:00 15,5 10,3 15,4 18,4 16,0 15,1 25 13 38 20 NW 1031,3 34 0,0
13.09.2019 14:00:00 17,0 8,2 19,1 18,7 15,8 15,1 28 15 43 23 NW 1030,8 49 0,0
13.09.2019 13:00:00 16,2 8,2 17,0 18,7 15,6 15,1 29 15 44 24 NW 1029,9 51 0,0
13.09.2019 12:00:00 15,6 9,0 15,2 17,7 15,4 15,1 30 16 44 24 NW 1029,4 30 0,0
13.09.2019 11:00:00 15,9 9,1 15,8 17,1 15,3 15,1 25 14 42 23 NW 1028,7 53 0,0
13.09.2019 10:00:00 15,5 9,9 15,1 16,2 15,2 15,1 25 14 36 20 NW 1027,5 57 0,0
13.09.2019 09:00:00 14,8 11,8 15,5 14,9 15,3 15,1 14 8 23 12 NW 1026,3 55 0,0
13.09.2019 08:00:00 13,9 12,6 12,9 14,2 15,4 15,1 13 7 20 11 NW 1025,2 0 0,0
13.09.2019 07:00:00 14,3 13,0 13,4 14,8 15,5 15,1 18 10 37 20 NNW 1024,1 0 0,0
13.09.2019 06:00:00 14,8 13,9 14,2 15,6 15,5 15,1 22 12 36 19 NNW 1022,5 0 0,2
13.09.2019 05:00:00 16,4 15,8 16,0 16,1 15,5 15,1 21 12 45 25 W 1021,4 0 0,8
13.09.2019 04:00:00 17,5 16,5 16,7 16,3 15,4 15,1 24 13 42 23 W 1021,0 0 0,1
13.09.2019 03:00:00 17,4 16,8 16,7 16,0 15,4 15,1 23 12 42 23 WSW 1020,9 0 0,3
13.09.2019 02:00:00 16,7 16,1 16,1 15,7 15,4 15,1 23 12 39 21 SW 1021,3 0 0,1
13.09.2019 01:00:00 16,9 15,6 15,8 15,4 15,5 15,1 22 12 39 21 SW 1022,0 0 0,0
13.09.2019 00:00:00 16,7 14,1 15,5 15,2 15,6 15,1 13 7 30 16 SW 1022,7 0 0,0
12.09.2019 23:00:00 16,6 13,4 15,4 15,2 15,7 15,1 16 8 32 17 SW 1023,2 0 0,0
12.09.2019 22:00:00 16,8 13,0 15,2 15,2 15,8 15,1 18 10 31 17 WSW 1023,6 0 0,0
12.09.2019 21:00:00 16,7 13,4 15,2 15,4 15,9 15,1 16 8 27 15 SW 1023,7 0 0,0
12.09.2019 20:00:00 16,5 12,9 15,1 15,8 16,0 15,1 15 8 31 17 SW 1023,8 3 0,0
12.09.2019 19:00:00 17,0 12,9 15,7 16,9 16,0 15,1 16 9 34 18 SW 1024,0 6 0,0
12.09.2019 18:00:00 17,4 12,4 16,2 17,7 15,9 15,1 20 11 38 20 WSW 1024,0 12 0,0
12.09.2019 17:00:00 18,6 12,0 19,7 18,6 15,7 15,1 22 12 41 22 WSW 1024,2 27 0,0
12.09.2019 16:00:00 18,1 12,2 17,4 19,2 15,4 15,1 26 14 38 20 WSW 1024,3 35 0,0
12.09.2019 15:00:00 17,9 12,8 18,0 18,8 15,1 15,1 22 12 41 22 WSW 1024,3 21 0,0
12.09.2019 14:00:00 17,9 13,0 18,2 17,8 14,9 15,1 19 10 39 21 W 1024,1 3 0,0
12.09.2019 13:00:00 17,7 13,7 17,7 17,9 14,6 15,2 18 10 36 19 WSW 1023,7 5 0,0
12.09.2019 12:00:00 17,8 12,9 17,5 18,1 14,2 15,2 24 13 39 21 WSW 1023,4 31 0,0
12.09.2019 11:00:00 17,4 12,9 18,6 16,0 14,0 15,2 14 8 24 13 SW 1022,8 3 0,0
12.09.2019 10:00:00 16,6 13,2 16,1 15,2 13,8 15,2 12 7 21 11 WSW 1022,4 8 0,0
12.09.2019 09:00:00 16,1 12,7 15,2 13,9 13,8 15,2 13 7 22 12 WSW 1021,9 2 0,0
12.09.2019 08:00:00 15,2 12,6 14,0 13,0 13,8 15,2 10 5 15 8 SW 1021,5 0 0,0
12.09.2019 07:00:00 15,0 12,0 13,4 12,7 13,8 15,2 12 7 20 11 WSW 1020,9 0 0,0
12.09.2019 06:00:00 14,7 11,7 13,2 12,3 13,8 15,2 13 7 20 11 SW 1020,4 0 0,0
12.09.2019 05:00:00 14,1 11,8 12,5 11,9 14,0 15,2 11 6 18 10 SW 1020,2 0 0,0
12.09.2019 04:00:00 13,5 11,7 11,0 11,9 14,1 15,2 10 5 18 10 WSW 1019,7 0 0,0
12.09.2019 03:00:00 13,7 11,6 11,5 12,2 14,2 15,2 11 6 21 11 W 1019,4 0 0,0
12.09.2019 02:00:00 14,1 12,7 12,7 12,7 14,4 15,2 10 6 17 9 WSW 1018,8 0 0,0
12.09.2019 01:00:00 13,3 11,7 11,1 12,2 14,5 15,2 10 6 16 8 WSW 1018,2 0 0,0
12.09.2019 00:00:00 13,6 12,2 11,5 12,9 14,7 15,2 11 6 19 10 WSW 1017,6 0 0,0
11.09.2019 23:00:00 14,1 12,2 12,2 13,8 14,7 15,2 14 8 30 16 W 1017,1 0 0,0
11.09.2019 22:00:00 15,4 14,2 14,2 14,7 14,7 15,2 16 8 25 14 W 1016,2 0 0,0
11.09.2019 21:00:00 15,7 15,6 15,2 14,9 14,7 15,3 13 7 46 25 W 1015,3 0 2,5
11.09.2019 20:00:00 15,1 14,8 14,6 14,5 14,7 15,3 27 14 48 26 SW 1014,5 0 0,6
11.09.2019 19:00:00 14,4 14,1 14,0 14,4 14,7 15,3 29 15 48 26 SSW 1014,6 0 0,3
11.09.2019 18:00:00 14,1 13,5 13,7 14,3 14,8 15,3 33 18 59 32 SSW 1014,8 0 1,6
11.09.2019 17:00:00 13,7 13,2 13,4 14,3 14,8 15,3 31 17 54 29 SSW 1015,1 0 4,0
11.09.2019 16:00:00 13,8 13,1 13,5 14,7 14,8 15,3 34 19 64 34 SSW 1015,5 0 2,4
11.09.2019 15:00:00 14,2 12,9 13,6 15,5 14,7 15,3 36 19 61 33 SSW 1015,8 0 0,6
11.09.2019 14:00:00 15,8 14,2 15,2 16,0 14,6 15,3 31 17 48 26 SSW 1015,7 0 0,6
11.09.2019 13:00:00 16,5 13,2 16,6 16,9 14,3 15,3 32 18 53 29 SSW 1015,8 0 0,0
11.09.2019 12:00:00 16,6 13,3 17,4 16,9 13,9 15,3 32 17 51 28 SSW 1016,0 19 0,0
11.09.2019 11:00:00 16,7 13,2 17,4 16,2 13,6 15,3 29 16 53 28 SSW 1016,2 40 0,0
11.09.2019 10:00:00 16,2 13,2 16,7 14,9 13,4 15,3 29 16 43 23 SSW 1016,2 37 0,0
11.09.2019 09:00:00 14,6 13,2 14,1 12,8 13,3 15,3 18 10 36 19 S 1016,0 13 0,0
11.09.2019 08:00:00 13,7 12,2 12,8 11,2 13,3 15,3 16 9 28 15 SSW 1016,3 12 0,0
11.09.2019 07:00:00 13,5 11,8 11,7 10,4 13,5 15,3 16 9 24 13 SSW 1016,4 0 0,0
11.09.2019 06:00:00 10,7 9,5 7,9 9,8 13,7 15,3 9 5 14 8 S 1016,6 0 0,0
11.09.2019 05:00:00 11,9 9,8 9,0 10,4 13,9 15,3 10 5 18 10 SW 1016,9 0 0,0
11.09.2019 04:00:00 12,6 10,3 10,0 10,7 14,1 15,3 13 7 20 11 WSW 1017,1 0 0,0
11.09.2019 03:00:00 12,3 11,2 10,4 10,7 14,4 15,3 9 5 14 8 SW 1017,3 0 0,0
11.09.2019 02:00:00 10,3 9,7 6,4 10,8 14,6 15,3 6 4 11 6 S 1017,2 0 0,0
11.09.2019 01:00:00 12,2 10,3 8,9 11,6 14,9 15,3 9 5 14 8 WSW 1016,8 0 0,0
11.09.2019 00:00:00 12,9 11,0 10,2 12,2 15,1 15,3 9 5 18 10 W 1016,9 0 0,0
10.09.2019 23:00:00 13,5 11,5 11,2 13,0 15,3 15,3 11 6 20 11 W 1016,6 0 0,0
10.09.2019 22:00:00 14,0 11,8 12,2 13,7 15,5 15,3 13 7 21 11 W 1016,2 0 0,0
10.09.2019 21:00:00 15,1 12,3 13,9 14,5 15,6 15,3 14 8 22 12 W 1015,6 0 0,0
10.09.2019 20:00:00 14,9 12,4 13,5 15,2 15,7 15,3 14 7 32 18 W 1015,2 27 0,0
10.09.2019 19:00:00 16,2 12,5 15,6 16,6 15,6 15,3 21 11 43 23 WNW 1015,0 20 0,0
10.09.2019 18:00:00 15,8 13,6 15,7 16,7 15,6 15,3 15 8 33 18 W 1014,6 0 0,0
10.09.2019 17:00:00 15,2 12,9 14,9 16,6 15,5 15,4 24 13 40 21 WNW 1014,3 0 0,0
10.09.2019 16:00:00 15,0 13,7 15,4 16,7 15,4 15,4 23 12 38 21 WNW 1014,0 0 2,1
10.09.2019 15:00:00 14,5 13,5 14,7 17,0 15,2 15,4 20 11 40 21 NW 1013,6 0 0,4
10.09.2019 14:00:00 15,2 13,4 14,9 16,9 15,0 15,4 20 11 39 21 WNW 1013,2 0 0,2
10.09.2019 13:00:00 16,4 13,8 16,2 17,0 14,8 15,4 26 14 39 21 W 1012,5 0 0,1
10.09.2019 12:00:00 14,4 12,7 14,2 16,3 14,5 15,4 26 14 45 25 WNW 1012,5 0 0,6
10.09.2019 11:00:00 16,8 12,7 17,4 16,0 14,3 15,4 25 13 37 20 WNW 1012,2 1 0,0
10.09.2019 10:00:00 15,2 13,2 14,7 14,2 14,3 15,4 14 8 26 14 WNW 1012,1 0 0,4
10.09.2019 09:00:00 14,8 12,9 14,5 13,7 14,3 15,4 13 7 18 10 W 1011,8 0 0,0
10.09.2019 08:00:00 13,3 12,4 12,7 12,5 14,3 15,4 10 5 13 7 W 1011,6 0 0,0
10.09.2019 07:00:00 12,3 11,7 11,5 12,0 14,5 15,4 7 4 10 5 W 1011,7 0 0,0
10.09.2019 06:00:00 11,2 10,8 10,2 11,7 14,7 15,4 4 2 10 5 W 1011,7 0 0,0
10.09.2019 05:00:00 10,8 10,5 8,7 11,9 14,9 15,4 5 3 9 5 W 1011,8 0 0,0
10.09.2019 04:00:00 11,2 10,9 9,8 12,4 15,1 15,4 4 2 11 6 NW 1012,1 0 0,0
10.09.2019 03:00:00 11,7 11,1 10,4 13,1 15,3 15,4 6 4 10 6 WNW 1012,2 0 0,1
10.09.2019 02:00:00 12,2 11,8 11,6 13,5 15,4 15,4 6 3 7 4 WNW 1012,4 0 0,0
10.09.2019 01:00:00 12,6 12,3 11,7 13,8 15,6 15,4 5 3 6 4 NNW 1012,6 0 0,0
10.09.2019 00:00:00 12,7 12,2 12,0 14,1 15,8 15,4 3 2 5 3 WNW 1012,8 0 0,2
09.09.2019 23:00:00 13,0 12,4 12,2 14,4 16,0 15,4 3 2 6 3 NNW 1012,9 0 0,0
09.09.2019 22:00:00 13,1 12,5 12,3 14,8 16,2 15,4 6 3 7 4 W 1013,0 0 0,0
09.09.2019 21:00:00 13,5 12,7 12,7 15,3 16,3 15,4 5 3 11 6 WNW 1013,2 0 0,0
09.09.2019 20:00:00 14,3 12,7 14,1 16,2 16,5 15,4 8 5 13 7 N 1013,1 0 0,0
09.09.2019 19:00:00 15,0 12,6 14,8 17,1 16,6 15,4 9 5 13 7 ENE 1012,9 0 0,0
09.09.2019 18:00:00 16,5 11,2 16,7 18,1 16,6 15,4 9 5 15 8 NNW 1012,9 0 0,0
09.09.2019 17:00:00 17,0 11,2 17,9 19,1 16,4 15,4 13 7 19 10 NNW 1012,6 0 0,0
09.09.2019 16:00:00 17,2 12,1 18,5 20,1 16,2 15,4 14 8 19 10 WNW 1013,0 2 0,0
09.09.2019 15:00:00 17,5 11,4 19,7 21,5 15,7 15,5 9 5 12 7 NW 1013,3 5 0,0
09.09.2019 14:00:00 18,9 11,2 24,1 23,5 15,0 15,5 4 2 11 6 ESE 1013,6 49 0,0
09.09.2019 13:00:00 18,1 11,2 23,3 22,2 14,3 15,5 6 3 13 7 ESE 1013,6 57 0,0
09.09.2019 12:00:00 17,7 12,1 24,7 20,6 13,7 15,5 5 3 12 6 ENE 1014,1 60 0,0

tt = Température de l'air
td = dewpoint
tt 5cm = Température de l'air 5cm
tt -5cm = Température de l'air -5cm
tt -20cm = Température de l'air -20cm
tt -100cm = Température de l'air -100cm
ff = Vitesse du vent
fx = gusts
dd = Direction du vent
ppp = reduced air pressure
sd = Ensoleillement
rr = Quantités de précipitations

stations d'obs. à proximité